createdAt,value
2023-01-29T00:01:12.472Z,100314.11
2023-01-29T00:03:43.112Z,100313.94
2023-01-29T00:06:13.494Z,100315.83
2023-01-29T00:08:41.683Z,100318.06
2023-01-29T00:11:10.452Z,100314.64
2023-01-29T00:13:38.641Z,100317.39
2023-01-29T00:16:07.199Z,100319.80
2023-01-29T00:18:39.810Z,100321.69
2023-01-29T00:21:15.548Z,100322.19
2023-01-29T00:23:43.915Z,100327.48
2023-01-29T00:26:12.608Z,100327.14
2023-01-29T00:28:45.017Z,100331.59
2023-01-29T00:31:18.151Z,100331.08
2023-01-29T00:33:46.457Z,100328.86
2023-01-29T00:36:16.740Z,100326.98
2023-01-29T00:38:45.124Z,100328.51
2023-01-29T00:41:34.543Z,100327.15
2023-01-29T00:44:21.503Z,100329.70
2023-01-29T00:46:51.080Z,100322.36
2023-01-29T00:49:19.528Z,100320.82
2023-01-29T00:52:07.753Z,100322.20
2023-01-29T00:54:36.526Z,100329.54
2023-01-29T00:57:06.873Z,100332.28
2023-01-29T00:59:35.129Z,100329.89
2023-01-29T01:02:21.966Z,100334.67
2023-01-29T01:04:50.326Z,100329.70
2023-01-29T01:07:18.711Z,100333.99
2023-01-29T01:10:08.387Z,100332.80
2023-01-29T01:12:36.784Z,100330.56
2023-01-29T01:15:06.310Z,100326.64
2023-01-29T01:17:35.873Z,100329.20
2023-01-29T01:20:05.230Z,100333.13
2023-01-29T01:22:33.545Z,100334.50
2023-01-29T01:25:01.939Z,100334.51
2023-01-29T01:27:32.382Z,100335.35
2023-01-29T01:30:02.055Z,100336.89
2023-01-29T01:32:30.287Z,100338.61
2023-01-29T01:34:58.568Z,100340.33
2023-01-29T01:37:27.145Z,100338.44
2023-01-29T01:39:58.078Z,100342.86
2023-01-29T01:42:30.786Z,100349.17
2023-01-29T01:45:05.087Z,100350.52
2023-01-29T01:47:48.298Z,100353.09
2023-01-29T01:50:24.651Z,100353.09
2023-01-29T01:52:58.644Z,100353.14
2023-01-29T01:55:32.997Z,100356.40
2023-01-29T01:58:12.796Z,100357.63
2023-01-29T02:00:43.654Z,100358.18
2023-01-29T02:03:32.548Z,100360.10
2023-01-29T02:06:20.040Z,100365.94
2023-01-29T02:09:25.886Z,100365.32
2023-01-29T02:11:54.170Z,100367.91
2023-01-29T02:14:22.435Z,100366.27
2023-01-29T02:16:51.205Z,100366.33
2023-01-29T02:19:50.877Z,100369.95
2023-01-29T02:22:43.259Z,100371.55
2023-01-29T02:25:50.657Z,100369.89
2023-01-29T02:28:36.259Z,100369.25
2023-01-29T02:31:20.074Z,100372.35
2023-01-29T02:34:21.967Z,100368.97
2023-01-29T02:37:12.253Z,100371.36
2023-01-29T02:39:40.536Z,100373.27
2023-01-29T02:42:11.853Z,100370.02
2023-01-29T02:45:03.980Z,100370.38
2023-01-29T02:47:44.751Z,100371.42
2023-01-29T02:50:32.804Z,100375.89
2023-01-29T02:53:17.621Z,100378.62
2023-01-29T02:55:55.242Z,100385.98
2023-01-29T02:58:38.876Z,100388.06
2023-01-29T03:01:16.372Z,100393.58
2023-01-29T03:03:53.140Z,100394.38
2023-01-29T03:06:33.563Z,100395.89
2023-01-29T03:10:07.550Z,100396.66
2023-01-29T03:13:23.226Z,100398.90
2023-01-29T03:16:04.896Z,100394.76
2023-01-29T03:18:52.138Z,100397.77
2023-01-29T03:21:50.174Z,100394.82
2023-01-29T03:24:53.157Z,100388.52
2023-01-29T03:27:49.634Z,100398.63
2023-01-29T03:30:40.973Z,100396.67
2023-01-29T03:33:24.964Z,100398.78
2023-01-29T03:36:05.976Z,100400.38
2023-01-29T03:38:34.680Z,100404.50
2023-01-29T03:41:09.739Z,100405.70
2023-01-29T03:43:52.353Z,100407.87
2023-01-29T03:46:30.030Z,100409.36
2023-01-29T03:49:03.323Z,100409.30
2023-01-29T03:52:15.553Z,100411.11
2023-01-29T03:54:54.525Z,100408.96
2023-01-29T03:57:59.121Z,100410.44
2023-01-29T04:00:38.902Z,100412.23
2023-01-29T04:03:34.431Z,100408.58
2023-01-29T04:06:19.463Z,100410.20
2023-01-29T04:10:46.788Z,100407.88
2023-01-29T04:14:04.727Z,100409.83
2023-01-29T04:16:39.575Z,100406.49
2023-01-29T04:19:31.224Z,100403.50
2023-01-29T04:22:24.676Z,100407.17
2023-01-29T04:24:53.095Z,100404.39
2023-01-29T04:27:57.653Z,100407.23
2023-01-29T04:30:33.804Z,100404.96
2023-01-29T04:33:17.988Z,100399.80
2023-01-29T04:36:00.458Z,100403.49
2023-01-29T04:38:54.837Z,100404.64
2023-01-29T04:42:05.202Z,100404.77
2023-01-29T04:44:46.085Z,100402.17
2023-01-29T04:47:20.397Z,100402.96
2023-01-29T04:50:41.305Z,100403.44
2023-01-29T04:53:54.220Z,100406.30
2023-01-29T04:56:47.708Z,100409.32
2023-01-29T04:59:40.630Z,100410.30
2023-01-29T05:02:13.246Z,100408.75
2023-01-29T05:04:47.849Z,100408.71
2023-01-29T05:08:13.190Z,100414.29
2023-01-29T05:10:44.002Z,100411.85
2023-01-29T05:13:14.709Z,100408.39
2023-01-29T05:15:58.216Z,100415.38
2023-01-29T05:18:27.011Z,100414.47
2023-01-29T05:20:57.764Z,100414.61
2023-01-29T05:23:26.019Z,100418.70
2023-01-29T05:25:54.258Z,100415.10
2023-01-29T05:28:22.472Z,100414.89
2023-01-29T05:30:55.778Z,100414.36
2023-01-29T05:33:29.533Z,100412.49
2023-01-29T05:36:00.025Z,100418.61
2023-01-29T05:38:29.330Z,100419.45
2023-01-29T05:40:59.929Z,100419.27
2023-01-29T05:43:30.683Z,100422.70
2023-01-29T05:46:01.317Z,100422.52
2023-01-29T05:48:32.696Z,100421.51
2023-01-29T05:51:05.458Z,100422.02
2023-01-29T05:53:34.112Z,100427.30
2023-01-29T05:56:05.698Z,100428.84
2023-01-29T05:58:42.702Z,100429.69
2023-01-29T06:01:17.525Z,100432.58
2023-01-29T06:03:46.830Z,100436.34
2023-01-29T06:06:18.005Z,100438.17
2023-01-29T06:08:46.239Z,100437.13
2023-01-29T06:11:16.683Z,100441.35
2023-01-29T06:13:46.155Z,100440.96
2023-01-29T06:16:18.136Z,100444.02
2023-01-29T06:18:48.841Z,100442.74
2023-01-29T06:21:20.189Z,100443.05
2023-01-29T06:23:48.701Z,100447.77
2023-01-29T06:26:16.953Z,100449.56
2023-01-29T06:28:48.426Z,100448.99
2023-01-29T06:31:36.969Z,100449.95
2023-01-29T06:34:06.789Z,100451.42
2023-01-29T06:36:37.694Z,100451.85
2023-01-29T06:39:06.145Z,100453.66
2023-01-29T06:41:35.015Z,100454.08
2023-01-29T06:44:05.552Z,100456.22
2023-01-29T06:46:34.727Z,100456.48
2023-01-29T06:49:03.696Z,100456.56
2023-01-29T06:51:32.226Z,100455.99
2023-01-29T06:54:01.589Z,100458.66
2023-01-29T06:56:30.146Z,100465.28
2023-01-29T06:58:58.450Z,100461.61
2023-01-29T07:01:35.787Z,100460.81
2023-01-29T07:04:04.954Z,100454.54
2023-01-29T07:06:33.672Z,100460.37
2023-01-29T07:09:04.893Z,100453.52
2023-01-29T07:11:35.520Z,100457.11
2023-01-29T07:14:04.248Z,100456.51
2023-01-29T07:16:33.040Z,100452.35
2023-01-29T07:19:01.656Z,100452.42
2023-01-29T07:21:30.006Z,100454.20
2023-01-29T07:23:59.960Z,100452.81
2023-01-29T07:26:29.358Z,100453.57
2023-01-29T07:29:00.000Z,100449.70
2023-01-29T07:31:30.914Z,100451.14
2023-01-29T07:34:00.834Z,100452.05
2023-01-29T07:36:29.997Z,100451.77
2023-01-29T07:39:00.157Z,100450.65
2023-01-29T07:41:28.423Z,100451.73
2023-01-29T07:43:56.639Z,100451.27
2023-01-29T07:46:27.507Z,100449.55
2023-01-29T07:48:58.793Z,100455.30
2023-01-29T07:51:27.488Z,100458.19
2023-01-29T07:54:09.539Z,100460.20
2023-01-29T07:56:37.933Z,100459.75
2023-01-29T07:59:09.333Z,100459.70
2023-01-29T08:01:37.651Z,100462.06
2023-01-29T08:04:05.908Z,100460.33
2023-01-29T08:06:34.234Z,100461.84
2023-01-29T08:09:04.960Z,100464.07
2023-01-29T08:11:33.317Z,100465.75
2023-01-29T08:14:01.957Z,100470.32
2023-01-29T08:16:31.807Z,100477.66
2023-01-29T08:19:02.457Z,100479.16
2023-01-29T08:21:30.715Z,100481.55
2023-01-29T08:26:27.642Z,100483.20
2023-01-29T08:28:58.169Z,100485.59
2023-01-29T08:31:26.497Z,100483.09
2023-01-29T08:33:55.804Z,100487.14
2023-01-29T08:36:24.090Z,100482.02
2023-01-29T08:38:52.397Z,100483.27
2023-01-29T08:41:20.577Z,100491.19
2023-01-29T08:43:49.527Z,100489.50
2023-01-29T08:46:17.939Z,100490.84
2023-01-29T08:48:46.357Z,100492.98
2023-01-29T08:51:14.589Z,100490.63
2023-01-29T08:53:44.386Z,100488.50
2023-01-29T08:56:12.676Z,100491.56
2023-01-29T08:58:40.858Z,100487.92
2023-01-29T09:01:11.485Z,100483.42
2023-01-29T09:03:44.140Z,100477.73
2023-01-29T09:06:14.160Z,100479.56
2023-01-29T09:08:42.577Z,100475.75
2023-01-29T09:11:11.871Z,100477.66
2023-01-29T09:13:40.186Z,100476.79
2023-01-29T09:16:09.547Z,100481.19
2023-01-29T09:18:38.076Z,100479.93
2023-01-29T09:21:06.342Z,100477.48
2023-01-29T09:23:34.526Z,100478.59
2023-01-29T09:26:04.666Z,100475.13
2023-01-29T09:28:32.991Z,100474.40
2023-01-29T09:31:03.093Z,100473.89
2023-01-29T09:33:32.849Z,100471.11
2023-01-29T09:36:03.727Z,100470.02
2023-01-29T09:38:33.511Z,100465.65
2023-01-29T09:41:34.111Z,100458.90
2023-01-29T09:44:14.294Z,100460.61
2023-01-29T09:46:57.311Z,100459.39
2023-01-29T09:49:31.825Z,100455.98
2023-01-29T09:52:29.280Z,100456.13
2023-01-29T09:55:47.023Z,100458.69
2023-01-29T09:58:35.170Z,100456.84
2023-01-29T10:01:38.934Z,100455.14
2023-01-29T10:04:41.703Z,100453.62
2023-01-29T10:07:45.792Z,100449.17
2023-01-29T10:10:50.593Z,100443.80
2023-01-29T10:13:28.285Z,100442.48
2023-01-29T10:16:27.206Z,100440.65
2023-01-29T10:19:14.118Z,100441.30
2023-01-29T10:22:20.931Z,100442.02
2023-01-29T10:25:03.558Z,100440.08
2023-01-29T10:27:34.943Z,100438.86
2023-01-29T10:30:09.786Z,100436.65
2023-01-29T10:32:38.291Z,100432.19
2023-01-29T10:35:22.495Z,100436.66
2023-01-29T10:37:55.027Z,100431.42
2023-01-29T10:40:30.523Z,100430.05
2023-01-29T10:43:22.319Z,100428.23
2023-01-29T10:46:16.344Z,100427.48
2023-01-29T10:48:47.518Z,100432.08
2023-01-29T10:51:31.379Z,100430.33
2023-01-29T10:54:27.996Z,100425.83
2023-01-29T10:57:05.290Z,100424.14
2023-01-29T11:00:13.442Z,100419.19
2023-01-29T11:02:52.151Z,100416.95
2023-01-29T11:05:25.966Z,100413.39
2023-01-29T11:08:16.394Z,100416.19
2023-01-29T11:11:06.923Z,100410.85
2023-01-29T11:13:45.914Z,100411.70
2023-01-29T11:16:15.595Z,100411.42
2023-01-29T11:18:59.737Z,100407.88
2023-01-29T11:21:29.929Z,100402.05
2023-01-29T11:24:28.259Z,100402.75
2023-01-29T11:27:00.523Z,100400.62
2023-01-29T11:29:28.922Z,100399.23
2023-01-29T11:31:59.476Z,100400.52
2023-01-29T11:34:28.091Z,100397.95
2023-01-29T11:37:20.470Z,100395.81
2023-01-29T11:39:52.132Z,100397.25
2023-01-29T11:42:22.947Z,100399.19
2023-01-29T11:44:54.514Z,100398.96
2023-01-29T11:47:30.941Z,100393.54
2023-01-29T11:50:03.033Z,100390.34
2023-01-29T11:52:38.896Z,100389.71
2023-01-29T11:55:26.071Z,100389.30
2023-01-29T11:57:57.366Z,100384.54
2023-01-29T12:00:32.101Z,100382.19
2023-01-29T12:03:25.350Z,100379.52
2023-01-29T12:06:05.868Z,100379.08
2023-01-29T12:08:38.540Z,100380.84
2023-01-29T12:11:11.382Z,100384.50
2023-01-29T12:13:42.608Z,100384.23
2023-01-29T12:16:42.694Z,100387.30
2023-01-29T12:19:23.393Z,100388.59
2023-01-29T12:22:06.677Z,100379.84
2023-01-29T12:24:39.165Z,100389.45
2023-01-29T12:27:13.601Z,100391.66
2023-01-29T12:30:00.634Z,100388.52
2023-01-29T12:32:50.335Z,100392.92
2023-01-29T12:35:25.083Z,100392.32
2023-01-29T12:38:18.881Z,100387.76
2023-01-29T12:40:52.014Z,100390.18
2023-01-29T12:43:40.363Z,100389.38
2023-01-29T12:46:21.998Z,100391.64
2023-01-29T12:48:52.460Z,100395.35
2023-01-29T12:51:34.011Z,100398.98
2023-01-29T12:54:08.633Z,100399.93
2023-01-29T12:56:47.364Z,100401.74
2023-01-29T12:59:39.694Z,100399.93
2023-01-29T13:02:56.758Z,100402.65
2023-01-29T13:05:56.908Z,100404.75
2023-01-29T13:08:30.570Z,100405.06
2023-01-29T13:11:03.186Z,100399.66
2023-01-29T13:13:37.076Z,100395.55
2023-01-29T13:16:11.347Z,100398.30
2023-01-29T13:18:46.705Z,100395.21
2023-01-29T13:21:21.335Z,100397.77
2023-01-29T13:23:56.742Z,100397.41
2023-01-29T13:26:27.008Z,100401.32
2023-01-29T13:28:55.638Z,100400.90
2023-01-29T13:31:33.924Z,100406.15
2023-01-29T13:34:10.088Z,100403.70
2023-01-29T13:36:44.213Z,100405.42
2023-01-29T13:39:29.584Z,100404.57
2023-01-29T13:42:00.345Z,100406.55
2023-01-29T13:44:33.827Z,100404.02
2023-01-29T13:47:20.587Z,100404.23
2023-01-29T13:49:59.962Z,100403.77
2023-01-29T13:52:43.620Z,100408.39
2023-01-29T13:55:19.454Z,100409.53
2023-01-29T13:57:55.828Z,100409.45
2023-01-29T14:00:33.420Z,100408.06
2023-01-29T14:03:04.947Z,100407.13
2023-01-29T14:05:39.905Z,100410.63
2023-01-29T14:08:13.857Z,100407.66
2023-01-29T14:10:43.001Z,100412.33
2023-01-29T14:13:22.264Z,100412.55
2023-01-29T14:15:58.618Z,100415.14
2023-01-29T14:18:30.051Z,100414.14
2023-01-29T14:21:05.265Z,100416.05
2023-01-29T14:23:41.720Z,100413.66
2023-01-29T14:26:24.978Z,100417.63
2023-01-29T14:29:38.223Z,100415.12
2023-01-29T14:32:06.358Z,100414.11
2023-01-29T14:34:47.904Z,100414.36
2023-01-29T14:37:16.053Z,100413.39
2023-01-29T14:39:53.365Z,100415.52
2023-01-29T14:42:47.261Z,100417.95
2023-01-29T14:45:34.210Z,100418.17
2023-01-29T14:48:11.927Z,100418.56
2023-01-29T14:50:53.323Z,100415.70
2023-01-29T14:54:04.685Z,100418.52
2023-01-29T14:56:45.246Z,100423.48
2023-01-29T14:59:31.038Z,100425.73
2023-01-29T15:02:05.694Z,100425.08
2023-01-29T15:04:41.602Z,100422.38
2023-01-29T15:07:09.807Z,100418.48
2023-01-29T15:09:50.970Z,100423.61
2023-01-29T15:12:45.486Z,100425.02
2023-01-29T15:15:46.603Z,100427.30
2023-01-29T15:18:27.292Z,100428.35
2023-01-29T15:21:13.324Z,100433.66
2023-01-29T15:23:43.687Z,100431.63
2023-01-29T15:26:27.005Z,100432.84
2023-01-29T15:29:03.589Z,100432.02
2023-01-29T15:31:33.332Z,100433.73
2023-01-29T15:34:07.192Z,100433.91
2023-01-29T15:36:37.634Z,100433.75
2023-01-29T15:39:12.068Z,100430.02
2023-01-29T15:41:40.445Z,100434.46
2023-01-29T15:44:18.874Z,100431.23
2023-01-29T15:47:15.460Z,100428.85
2023-01-29T15:49:46.655Z,100437.43
2023-01-29T15:52:23.015Z,100441.37
2023-01-29T15:54:52.137Z,100437.61
2023-01-29T15:57:25.911Z,100438.46
2023-01-29T15:59:57.048Z,100442.39
2023-01-29T16:02:34.923Z,100442.92
2023-01-29T16:05:11.793Z,100449.77
2023-01-29T16:07:40.771Z,100450.46
2023-01-29T16:10:17.880Z,100449.10
2023-01-29T16:12:51.766Z,100450.45
2023-01-29T16:15:31.667Z,100446.34
2023-01-29T16:18:05.117Z,100447.02
2023-01-29T16:20:45.815Z,100448.91
2023-01-29T16:23:21.953Z,100454.05
2023-01-29T16:25:51.379Z,100449.09
2023-01-29T16:28:22.271Z,100448.40
2023-01-29T16:31:01.250Z,100444.33
2023-01-29T16:33:37.753Z,100445.88
2023-01-29T16:36:17.741Z,100443.17
2023-01-29T16:38:56.711Z,100446.62
2023-01-29T16:41:45.139Z,100450.73
2023-01-29T16:44:16.015Z,100444.09
2023-01-29T16:46:51.423Z,100441.70
2023-01-29T16:49:25.848Z,100436.65
2023-01-29T16:51:56.572Z,100443.94
2023-01-29T16:54:28.043Z,100439.86
2023-01-29T16:57:00.817Z,100441.75
2023-01-29T16:59:35.686Z,100435.48
2023-01-29T17:02:09.778Z,100439.39
2023-01-29T17:04:41.883Z,100434.59
2023-01-29T17:07:17.805Z,100435.42
2023-01-29T17:10:03.048Z,100442.78
2023-01-29T17:12:33.959Z,100438.00
2023-01-29T17:15:26.752Z,100440.40
2023-01-29T17:17:55.757Z,100443.32
2023-01-29T17:20:24.226Z,100439.69
2023-01-29T17:22:54.248Z,100438.83
2023-01-29T17:25:22.617Z,100440.71
2023-01-29T17:27:54.434Z,100439.04
2023-01-29T17:30:26.676Z,100435.77
2023-01-29T17:32:54.979Z,100433.74
2023-01-29T17:35:27.655Z,100436.30
2023-01-29T17:37:55.869Z,100436.48
2023-01-29T17:40:39.173Z,100436.18
2023-01-29T17:43:08.013Z,100432.94
2023-01-29T17:45:43.674Z,100436.38
2023-01-29T17:48:15.426Z,100438.27
2023-01-29T17:50:48.666Z,100444.44
2023-01-29T17:53:20.272Z,100441.54
2023-01-29T17:55:49.169Z,100438.45
2023-01-29T17:58:20.415Z,100445.48
2023-01-29T18:00:49.404Z,100444.80
2023-01-29T18:03:18.441Z,100447.39
2023-01-29T18:05:49.207Z,100443.80
2023-01-29T18:08:20.073Z,100445.17
2023-01-29T18:10:48.974Z,100446.54
2023-01-29T18:13:17.238Z,100448.59
2023-01-29T18:15:45.524Z,100451.69
2023-01-29T18:18:22.406Z,100447.80
2023-01-29T18:20:51.634Z,100455.27
2023-01-29T18:23:20.256Z,100456.47
2023-01-29T18:25:57.948Z,100456.48
2023-01-29T18:28:26.271Z,100462.29
2023-01-29T18:30:54.802Z,100461.61
2023-01-29T18:33:24.509Z,100460.92
2023-01-29T18:35:55.300Z,100463.48
2023-01-29T18:38:26.372Z,100464.30
2023-01-29T18:40:54.725Z,100461.21
2023-01-29T18:43:26.119Z,100459.86
2023-01-29T18:45:59.238Z,100461.41
2023-01-29T18:48:27.651Z,100460.23
2023-01-29T18:50:56.004Z,100452.27
2023-01-29T18:53:28.663Z,100460.07
2023-01-29T18:56:05.243Z,100461.27
2023-01-29T18:58:58.649Z,100465.38
2023-01-29T19:01:29.023Z,100464.54
2023-01-29T19:03:59.918Z,100464.90
2023-01-29T19:06:28.456Z,100461.14
2023-01-29T19:08:59.784Z,100463.72
2023-01-29T19:11:31.221Z,100462.86
2023-01-29T19:13:59.546Z,100462.36
2023-01-29T19:16:30.058Z,100461.00
2023-01-29T19:19:04.592Z,100465.64
2023-01-29T19:21:37.311Z,100466.51
2023-01-29T19:24:09.693Z,100467.54
2023-01-29T19:26:38.066Z,100473.00
2023-01-29T19:29:09.511Z,100473.88
2023-01-29T19:31:40.193Z,100473.70
2023-01-29T19:34:09.539Z,100471.83
2023-01-29T19:36:37.975Z,100475.58
2023-01-29T19:39:06.301Z,100474.20
2023-01-29T19:41:35.257Z,100472.50
2023-01-29T19:44:12.364Z,100472.84
2023-01-29T19:46:40.742Z,100472.16
2023-01-29T19:49:10.473Z,100471.67
2023-01-29T19:51:41.105Z,100474.42
2023-01-29T19:54:12.360Z,100473.05
2023-01-29T19:56:40.746Z,100469.29
2023-01-29T19:59:10.693Z,100469.46
2023-01-29T20:01:39.061Z,100470.48
2023-01-29T20:04:07.428Z,100469.82
2023-01-29T20:06:35.926Z,100466.59
2023-01-29T20:09:08.772Z,100466.45
2023-01-29T20:11:37.244Z,100470.21
2023-01-29T20:14:05.712Z,100466.48
2023-01-29T20:16:34.296Z,100465.80
2023-01-29T20:19:14.321Z,100465.98
2023-01-29T20:22:13.363Z,100461.54
2023-01-29T20:24:43.133Z,100457.46
2023-01-29T20:27:50.332Z,100458.67
2023-01-29T20:30:20.484Z,100456.11
2023-01-29T20:32:51.420Z,100456.28
2023-01-29T20:35:19.816Z,100454.91
2023-01-29T20:37:48.866Z,100450.84
2023-01-29T20:40:18.085Z,100452.73
2023-01-29T20:42:46.732Z,100453.92
2023-01-29T20:45:15.787Z,100449.19
2023-01-29T20:47:44.596Z,100451.41
2023-01-29T20:50:15.208Z,100446.29
2023-01-29T20:52:43.677Z,100450.75
2023-01-29T20:55:13.380Z,100447.00
2023-01-29T20:57:44.052Z,100449.20
2023-01-29T21:00:32.578Z,100446.80
2023-01-29T21:03:05.268Z,100444.58
2023-01-29T21:05:33.832Z,100443.04
2023-01-29T21:08:02.364Z,100443.55
2023-01-29T21:10:30.744Z,100441.66
2023-01-29T21:12:59.219Z,100440.64
2023-01-29T21:15:27.621Z,100443.20
2023-01-29T21:17:56.015Z,100437.57
2023-01-29T21:20:24.387Z,100437.73
2023-01-29T21:22:52.966Z,100438.58
2023-01-29T21:25:21.622Z,100442.67
2023-01-29T21:27:50.528Z,100443.02
2023-01-29T21:30:20.450Z,100441.64
2023-01-29T21:32:49.138Z,100437.19
2023-01-29T21:35:17.504Z,100432.73
2023-01-29T21:37:45.898Z,100431.38
2023-01-29T21:40:25.663Z,100432.91
2023-01-29T21:43:12.155Z,100425.24
2023-01-29T21:45:41.380Z,100419.45
2023-01-29T21:48:12.028Z,100422.20
2023-01-29T21:50:40.923Z,100423.06
2023-01-29T21:53:10.269Z,100418.42
2023-01-29T21:55:41.254Z,100416.39
2023-01-29T21:58:09.486Z,100414.19
2023-01-29T22:00:38.223Z,100411.77
2023-01-29T22:03:07.049Z,100399.88
2023-01-29T22:05:35.457Z,100405.46
2023-01-29T22:08:05.063Z,100403.23
2023-01-29T22:10:36.889Z,100399.64
2023-01-29T22:13:05.569Z,100398.10
2023-01-29T22:15:33.883Z,100399.47
2023-01-29T22:18:03.921Z,100394.34
2023-01-29T22:20:33.188Z,100391.60
2023-01-29T22:23:01.497Z,100392.97
2023-01-29T22:25:30.225Z,100389.22
2023-01-29T22:28:01.249Z,100385.80
2023-01-29T22:30:29.806Z,100385.45
2023-01-29T22:32:58.630Z,100384.60
2023-01-29T22:35:26.905Z,100382.89
2023-01-29T22:37:55.161Z,100381.02
2023-01-29T22:40:26.636Z,100376.80
2023-01-29T22:42:55.640Z,100373.21
2023-01-29T22:45:24.021Z,100374.92
2023-01-29T22:47:52.379Z,100373.23
2023-01-29T22:50:21.365Z,100373.59
2023-01-29T22:52:54.094Z,100372.77
2023-01-29T22:55:22.738Z,100368.14
2023-01-29T22:57:53.741Z,100371.38
2023-01-29T23:00:22.910Z,100366.41
2023-01-29T23:02:51.744Z,100362.98
2023-01-29T23:05:21.595Z,100360.41
2023-01-29T23:07:50.219Z,100359.88
2023-01-29T23:10:18.946Z,100362.27
2023-01-29T23:12:47.602Z,100355.09
2023-01-29T23:15:17.226Z,100352.52
2023-01-29T23:17:45.635Z,100342.45
2023-01-29T23:20:16.663Z,100338.16
2023-01-29T23:22:45.352Z,100329.27
2023-01-29T23:25:14.047Z,100330.12
2023-01-29T23:27:42.390Z,100328.92
2023-01-29T23:30:11.241Z,100331.83
2023-01-29T23:32:41.273Z,100325.70
2023-01-29T23:35:10.670Z,100324.36
2023-01-29T23:37:39.052Z,100320.12
2023-01-29T23:40:08.277Z,100322.36
2023-01-29T23:42:36.654Z,100323.40
2023-01-29T23:45:06.493Z,100325.87
2023-01-29T23:47:34.824Z,100321.16
2023-01-29T23:50:03.681Z,100317.74
2023-01-29T23:52:32.024Z,100311.84
2023-01-29T23:55:02.612Z,100321.50
2023-01-29T23:57:30.893Z,100319.33
2023-01-29T23:59:59.344Z,100317.80
